Time;durP1;ratioP1;P1;durP2;ratioP2;P2;SDS_P1;SDS_P2;PMS_P1;PMS_P2;Temp;Humidity;BMP_temperature;BMP_pressure;BME280_temperature;BME280_humidity;BME280_pressure;Samples;Min_cycle;Max_cycle;Signal;HPM_P1;HPM_P2
2023/03/25 00:00:56;;;;;;;4.95;0.90;;;9.90;99.90;;;;;;4999679;28;20148;-86
2023/03/25 00:03:25;;;;;;;5.05;1.08;;;10.00;99.90;;;;;;4984037;28;20498;-85
2023/03/25 00:05:51;;;;;;;3.60;1.10;;;10.00;99.90;;;;;;4983925;28;20026;-87
2023/03/25 00:08:17;;;;;;;4.93;0.95;;;;;;;;;;4983559;28;20376;-85
2023/03/25 00:10:43;;;;;;;1.77;0.82;;;9.90;99.90;;;;;;4982901;28;20038;-85
2023/03/25 00:13:12;;;;;;;2.97;1.10;;;9.70;99.90;;;;;;4978352;28;20089;-85
2023/03/25 00:15:44;;;;;;;4.70;1.02;;;9.70;99.90;;;;;;4982136;28;21304;-86
2023/03/25 00:18:10;;;;;;;5.38;1.20;;;11.10;99.90;;;;;;4997430;28;20073;-83
2023/03/25 00:20:36;;;;;;;2.35;0.90;;;9.80;99.90;;;;;;4985243;28;20026;-86
2023/03/25 00:23:02;;;;;;;3.03;1.20;;;;;;;;;;4981170;28;20026;-86
2023/03/25 00:25:28;;;;;;;1.98;0.70;;;;;;;;;;5001126;28;20041;-87
2023/03/25 00:27:54;;;;;;;3.13;0.93;;;;;;;;;;4983638;28;20065;-84
2023/03/25 00:30:22;;;;;;;1.25;0.50;;;;;;;;;;4978870;28;20038;-83
2023/03/25 00:32:51;;;;;;;2.30;0.70;;;;;;;;;;4982098;28;20518;-86
2023/03/25 00:35:18;;;;;;;1.70;0.47;;;8.90;99.90;;;;;;4977104;28;20080;-83
2023/03/25 00:37:46;;;;;;;3.30;0.60;;;8.80;99.90;;;;;;4985552;28;20507;-87
2023/03/25 00:40:13;;;;;;;1.45;0.50;;;;;;;;;;4989009;28;20349;-87
2023/03/25 00:42:43;;;;;;;2.33;0.50;;;7.80;99.90;;;;;;4988544;28;20022;-85
2023/03/25 00:45:10;;;;;;;1.13;0.52;;;8.60;99.90;;;;;;4996082;28;20049;-86
2023/03/25 00:47:36;;;;;;;0.80;0.55;;;;;;;;;;4994049;28;20038;-84
2023/03/25 00:50:03;;;;;;;0.63;0.38;;;8.60;99.90;;;;;;4992287;28;20027;-85
2023/03/25 00:52:29;;;;;;;2.78;0.77;;;;;;;;;;5007249;28;20034;-87
2023/03/25 00:54:56;;;;;;;2.58;0.80;;;;;;;;;;5003983;28;20029;-88
2023/03/25 00:57:22;;;;;;;2.85;1.25;;;;;;;;;;4991578;28;20030;-83
2023/03/25 00:59:47;;;;;;;2.17;0.60;;;8.60;99.90;;;;;;4987385;28;20022;-86
2023/03/25 01:02:15;;;;;;;0.45;0.40;;;8.60;99.90;;;;;;4989279;28;20030;-84
2023/03/25 01:04:41;;;;;;;2.17;0.52;;;8.50;99.90;;;;;;4992029;28;20039;-86
2023/03/25 01:07:07;;;;;;;1.25;0.60;;;;;;;;;;4994443;28;20049;-84
2023/03/25 01:09:33;;;;;;;2.10;0.90;;;;;;;;;;4992691;28;20027;-86
2023/03/25 01:11:59;;;;;;;1.95;1.05;;;;;;;;;;4992050;28;20392;-85
2023/03/25 01:14:26;;;;;;;1.73;0.70;;;8.70;99.90;;;;;;5006579;28;20030;-85
2023/03/25 01:16:53;;;;;;;1.27;0.68;;;8.70;99.90;;;;;;4986444;28;20026;-86
2023/03/25 01:19:19;;;;;;;0.90;0.45;;;;;;;;;;4986848;28;20034;-87
2023/03/25 01:21:46;;;;;;;3.60;0.68;;;;;;;;;;4991373;28;20061;-84
2023/03/25 01:24:13;;;;;;;1.92;0.70;;;8.50;99.90;;;;;;4985332;28;20034;-85
2023/03/25 01:26:40;;;;;;;2.88;0.80;;;8.50;99.90;;;;;;4989647;28;20462;-85
2023/03/25 01:29:06;;;;;;;2.10;0.90;;;8.50;99.90;;;;;;4990850;28;20026;-85
2023/03/25 01:31:32;;;;;;;2.22;0.70;;;;;;;;;;4991581;28;21292;-86
2023/03/25 01:33:58;;;;;;;2.65;1.13;;;8.70;99.90;;;;;;4991019;28;20026;-85
2023/03/25 01:36:28;;;;;;;1.60;0.60;;;8.70;99.90;;;;;;4989822;28;20030;-86
2023/03/25 01:38:54;;;;;;;2.25;0.90;;;8.70;99.90;;;;;;4990364;28;20632;-86
2023/03/25 01:41:20;;;;;;;3.78;1.52;;;8.70;99.90;;;;;;4993352;28;20030;-84
2023/03/25 01:44:06;;;;;;;5.55;1.95;;;8.70;99.90;;;;;;4991257;28;20030;-85
2023/03/25 01:46:32;;;;;;;5.30;1.42;;;;;;;;;;4992260;28;20022;-86
2023/03/25 01:48:59;;;;;;;0.93;0.60;;;;;;;;;;4992736;28;20116;-83
2023/03/25 01:51:28;;;;;;;4.75;1.88;;;;;;;;;;4993110;28;20038;-86
2023/03/25 01:53:54;;;;;;;2.92;1.30;;;;;;;;;;4990417;28;20026;-88
2023/03/25 01:56:29;;;;;;;3.28;0.75;;;;;;;;;;4991624;28;20030;-84
2023/03/25 01:58:56;;;;;;;7.97;2.67;;;;;;;;;;4992920;28;20030;-85
2023/03/25 02:01:22;;;;;;;2.45;0.75;;;;;;;;;;4994663;28;20034;-83
2023/03/25 02:03:51;;;;;;;1.60;0.68;;;;;;;;;;4989446;28;20037;-84
2023/03/25 02:06:30;;;;;;;3.85;1.17;;;8.90;99.90;;;;;;4987836;28;20030;-83
2023/03/25 02:08:57;;;;;;;1.63;0.88;;;;;;;;;;4991281;28;20037;-86
2023/03/25 02:11:27;;;;;;;2.33;0.70;;;;;;;;;;4987304;28;20022;-86
2023/03/25 02:13:58;;;;;;;2.33;0.75;;;8.90;99.90;;;;;;4991332;28;20030;-87
2023/03/25 02:16:27;;;;;;;2.08;1.08;;;;;;;;;;4993335;28;20073;-87
2023/03/25 02:19:10;;;;;;;3.22;0.80;;;9.00;99.90;;;;;;4989071;28;20039;-85
2023/03/25 02:21:49;;;;;;;4.03;1.20;;;;;;;;;;4989146;28;20117;-83
2023/03/25 02:24:18;;;;;;;2.00;0.70;;;;;;;;;;4988333;28;20034;-86
2023/03/25 02:27:13;;;;;;;3.75;0.90;;;8.90;99.90;;;;;;5000050;28;20113;-86
2023/03/25 02:29:57;;;;;;;1.70;0.70;;;;;;;;;;4990314;28;20053;-83
2023/03/25 02:32:47;;;;;;;2.80;1.02;;;;;;;;;;4989026;28;20422;-88
2023/03/25 02:35:19;;;;;;;3.45;0.80;;;8.80;99.90;;;;;;4985467;28;20038;-82
2023/03/25 02:37:48;;;;;;;3.38;0.70;;;;;;;;;;4985804;28;20034;-87
2023/03/25 02:40:23;;;;;;;4.60;1.55;;;;;;;;;;4990708;28;20026;-87
2023/03/25 02:42:55;;;;;;;2.17;0.82;;;;;;;;;;4983905;28;20692;-84
2023/03/25 02:45:20;;;;;;;2.60;0.80;;;9.00;99.90;;;;;;4991107;28;20029;-87
2023/03/25 02:47:50;;;;;;;2.58;0.77;;;8.90;99.90;;;;;;4987583;28;20027;-87
2023/03/25 02:50:18;;;;;;;2.83;0.85;;;;;;;;;;4984190;28;20030;-85
2023/03/25 02:52:50;;;;;;;2.38;0.73;;;;;;;;;;4987273;28;20491;-85
2023/03/25 02:55:17;;;;;;;4.20;1.00;;;;;;;;;;4989437;28;20685;-84
2023/03/25 02:57:45;;;;;;;2.17;0.80;;;;;;;;;;4980112;28;20023;-83
2023/03/25 03:00:14;;;;;;;3.92;0.80;;;;;;;;;;4987564;28;20026;-86
2023/03/25 03:02:49;;;;;;;1.27;0.65;;;9.10;99.90;;;;;;4985069;28;20077;-85
2023/03/25 03:05:24;;;;;;;5.93;1.05;;;9.10;99.90;;;;;;4998441;28;20045;-83
2023/03/25 03:08:28;;;;;;;4.28;1.17;;;9.00;99.90;;;;;;5007912;28;20091;-85
2023/03/25 03:11:14;;;;;;;3.40;0.90;;;8.80;99.90;;;;;;5000319;28;20042;-88
2023/03/25 03:13:49;;;;;;;3.47;1.20;;;8.80;99.90;;;;;;4981772;28;20043;-81
2023/03/25 03:16:31;;;;;;;5.78;1.15;;;8.70;99.90;;;;;;4992333;28;20097;-85
2023/03/25 03:19:37;;;;;;;7.35;1.35;;;8.70;99.90;;;;;;4991535;28;20033;-85
2023/03/25 03:22:13;;;;;;;2.53;0.82;;;;;;;;;;4993285;28;20037;-85
2023/03/25 03:25:09;;;;;;;7.45;1.25;;;8.90;99.90;;;;;;4994010;28;20018;-83
2023/03/25 03:27:39;;;;;;;3.72;0.90;;;;;;;;;;4997190;28;20122;-85
2023/03/25 03:30:25;;;;;;;5.50;1.25;;;;;;;;;;4999137;28;20117;-85
2023/03/25 03:33:00;;;;;;;4.20;1.00;;;;;;;;;;5001208;28;20034;-87
2023/03/25 03:35:38;;;;;;;5.43;1.58;;;;;;;;;;4997071;28;20077;-83
2023/03/25 03:38:08;;;;;;;3.97;0.80;;;;;;;;;;4975029;28;20038;-82
2023/03/25 03:40:36;;;;;;;3.90;0.95;;;;;;;;;;4988495;28;20121;-84
2023/03/25 03:43:02;;;;;;;6.68;1.27;;;;;;;;;;4995266;28;20038;-81
2023/03/25 03:45:35;;;;;;;5.18;1.02;;;8.90;99.90;;;;;;4989333;28;20420;-83
2023/03/25 03:48:04;;;;;;;4.47;1.20;;;;;;;;;;4995114;28;20030;-84
2023/03/25 03:50:32;;;;;;;4.60;1.15;;;;;;;;;;4992221;28;20034;-85
2023/03/25 03:53:10;;;;;;;9.05;1.20;;;;;;;;;;4996054;28;20030;-81
2023/03/25 03:55:56;;;;;;;4.70;1.20;;;;;;;;;;4993486;28;20026;-84
2023/03/25 03:58:28;;;;;;;6.82;1.30;;;;;;;;;;4997616;28;20320;-84
2023/03/25 04:01:04;;;;;;;7.00;1.33;;;;;;;;;;4986050;28;20507;-84
2023/03/25 04:03:37;;;;;;;3.63;0.90;;;;;;;;;;4991113;28;20042;-80
2023/03/25 04:06:08;;;;;;;6.30;1.20;;;;;;;;;;4991750;28;20030;-83
2023/03/25 04:08:41;;;;;;;8.30;1.25;;;;;;;;;;4991498;28;20031;-84
2023/03/25 04:11:11;;;;;;;4.18;0.95;;;;;;;;;;4992600;28;20037;-83
2023/03/25 04:13:39;;;;;;;8.35;1.88;;;;;;;;;;4991112;28;20483;-84
2023/03/25 04:16:06;;;;;;;6.63;1.45;;;;;;;;;;4994265;28;20150;-84
2023/03/25 04:18:32;;;;;;;4.63;1.42;;;;;;;;;;4991348;28;20050;-85
2023/03/25 04:20:59;;;;;;;7.03;1.40;;;;;;;;;;4996343;28;20109;-85
2023/03/25 04:23:28;;;;;;;4.40;1.00;;;;;;;;;;4994313;28;20026;-86
2023/03/25 04:25:56;;;;;;;6.63;1.13;;;;;;;;;;4996693;28;20022;-86
2023/03/25 04:28:25;;;;;;;5.28;1.00;;;;;;;;;;4992744;28;20050;-86
2023/03/25 04:30:55;;;;;;;4.88;1.35;;;;;;;;;;4995750;28;20023;-85
2023/03/25 04:33:24;;;;;;;8.45;1.25;;;;;;;;;;4997253;28;20052;-88
2023/03/25 04:35:51;;;;;;;6.70;1.17;;;;;;;;;;4998135;28;20153;-85
2023/03/25 04:38:17;;;;;;;8.20;1.52;;;;;;;;;;4995913;28;20184;-85
2023/03/25 04:40:45;;;;;;;7.97;1.52;;;;;;;;;;4998737;28;20546;-84
2023/03/25 04:43:12;;;;;;;9.10;1.65;;;;;;;;;;4994731;28;20043;-87
2023/03/25 04:45:38;;;;;;;8.57;1.48;;;;;;;;;;4998966;28;20026;-83
2023/03/25 04:48:04;;;;;;;5.45;1.02;;;;;;;;;;5000418;28;20042;-84
2023/03/25 04:50:31;;;;;;;11.63;1.70;;;;;;;;;;4999494;28;20069;-82
2023/03/25 04:53:01;;;;;;;7.10;1.38;;;8.90;99.90;;;;;;4998028;28;20060;-81
2023/03/25 04:55:26;;;;;;;9.18;1.40;;;8.90;99.90;;;;;;4996685;28;20050;-86
2023/03/25 04:57:53;;;;;;;7.55;1.50;;;;;;;;;;4992834;28;20034;-84
2023/03/25 05:00:24;;;;;;;5.97;1.20;;;;;;;;;;4995296;28;20030;-83
2023/03/25 05:02:52;;;;;;;17.42;2.85;;;;;;;;;;4997988;28;20093;-82
2023/03/25 05:05:20;;;;;;;9.20;1.70;;;8.90;99.90;;;;;;4990550;28;20038;-85
2023/03/25 05:07:48;;;;;;;11.02;2.00;;;8.80;99.90;;;;;;5006416;28;20032;-82
2023/03/25 05:10:21;;;;;;;8.75;1.63;;;8.80;99.90;;;;;;4998431;28;20041;-82
2023/03/25 05:12:49;;;;;;;10.73;2.15;;;8.70;99.90;;;;;;5000113;28;20116;-82
2023/03/25 05:15:16;;;;;;;9.75;1.70;;;8.70;99.90;;;;;;5002492;28;20482;-82
2023/03/25 05:17:42;;;;;;;16.25;1.95;;;8.60;99.90;;;;;;4998358;28;20029;-85
2023/03/25 05:20:09;;;;;;;9.52;1.60;;;8.70;99.90;;;;;;4993988;28;20034;-86
2023/03/25 05:22:36;;;;;;;8.20;1.33;;;8.50;99.90;;;;;;5003895;28;20462;-84
2023/03/25 05:25:07;;;;;;;12.55;2.13;;;8.50;99.90;;;;;;4996544;28;20065;-83
2023/03/25 05:27:34;;;;;;;12.35;2.53;;;8.50;99.90;;;;;;4998420;28;20027;-83
2023/03/25 05:30:01;;;;;;;6.53;1.45;;;8.50;99.90;;;;;;4997780;28;20545;-80
2023/03/25 05:32:28;;;;;;;9.35;2.10;;;8.50;99.90;;;;;;4997113;28;20048;-84
2023/03/25 05:34:55;;;;;;;13.27;1.65;;;8.60;99.90;;;;;;4997116;28;20161;-85
2023/03/25 05:37:21;;;;;;;9.55;1.90;;;8.50;99.90;;;;;;4996722;28;20040;-85
2023/03/25 05:39:47;;;;;;;17.42;3.03;;;8.50;99.90;;;;;;4995255;28;20113;-84
2023/03/25 05:42:13;;;;;;;8.27;1.55;;;8.50;99.90;;;;;;4996866;28;20038;-85
2023/03/25 05:44:49;;;;;;;8.13;1.73;;;8.50;99.90;;;;;;4999032;28;20084;-82
2023/03/25 05:47:20;;;;;;;12.68;1.77;;;8.50;99.90;;;;;;5006491;28;20077;-84
2023/03/25 05:49:47;;;;;;;6.72;1.20;;;8.60;99.90;;;;;;4995840;28;20404;-83
2023/03/25 05:52:13;;;;;;;11.30;2.25;;;8.60;99.90;;;;;;4994028;28;20034;-83
2023/03/25 05:54:40;;;;;;;12.18;1.88;;;8.70;99.90;;;;;;4995334;28;20061;-86
2023/03/25 05:57:07;;;;;;;9.68;2.45;;;8.70;99.90;;;;;;4996316;28;20124;-82
2023/03/25 05:59:37;;;;;;;9.02;1.40;;;8.70;99.90;;;;;;4992130;28;20026;-81
2023/03/25 06:02:08;;;;;;;6.95;1.45;;;8.70;99.90;;;;;;5018659;23;20861;-85
2023/03/25 06:04:40;;;;;;;13.95;2.22;;;8.70;99.90;;;;;;5010524;28;20030;-83
2023/03/25 06:07:18;;;;;;;15.20;2.53;;;8.80;99.90;;;;;;5016316;28;20467;-81
2023/03/25 06:09:45;;;;;;;6.57;1.50;;;8.80;99.90;;;;;;5022840;28;20034;-86
2023/03/25 06:12:14;;;;;;;9.63;1.63;;;8.90;99.90;;;;;;5022171;28;20054;-85
2023/03/25 06:14:44;;;;;;;9.60;1.98;;;8.90;99.90;;;;;;5004290;28;20027;-79
2023/03/25 06:17:11;;;;;;;9.80;1.63;;;8.90;99.90;;;;;;4995703;28;20054;-84
2023/03/25 06:19:38;;;;;;;16.52;2.33;;;9.00;99.90;;;;;;4997657;28;20026;-84
2023/03/25 06:22:09;;;;;;;10.02;1.85;;;10.10;99.90;;;;;;5000111;28;20364;-84
2023/03/25 06:24:40;;;;;;;9.50;2.17;;;9.00;99.90;;;;;;5001393;28;20022;-84
2023/03/25 06:27:15;;;;;;;8.55;1.55;;;9.10;99.90;;;;;;5003624;28;20066;-86
2023/03/25 06:29:41;;;;;;;13.80;2.25;;;9.10;99.90;;;;;;4981694;28;20403;-85
2023/03/25 06:32:09;;;;;;;8.93;1.70;;;9.10;99.90;;;;;;5004872;28;20406;-85
2023/03/25 06:34:35;;;;;;;11.18;1.98;;;9.10;99.90;;;;;;4990462;28;20027;-84
2023/03/25 06:37:01;;;;;;;12.70;2.08;;;10.00;99.90;;;;;;5002477;28;20053;-85
2023/03/25 06:39:29;;;;;;;8.80;1.58;;;9.10;99.90;;;;;;5008088;28;20019;-84
2023/03/25 06:41:56;;;;;;;14.35;2.00;;;9.40;99.90;;;;;;5005683;28;20018;-85
2023/03/25 06:44:22;;;;;;;14.32;2.03;;;9.40;99.90;;;;;;5000363;28;20040;-84
2023/03/25 06:46:48;;;;;;;11.38;1.70;;;;;;;;;;4999827;28;20022;-85
2023/03/25 06:49:14;;;;;;;12.38;1.88;;;;;;;;;;5008889;28;20034;-85
2023/03/25 06:51:39;;;;;;;11.73;2.17;;;9.30;99.90;;;;;;4998742;28;20026;-86
2023/03/25 06:54:05;;;;;;;11.10;2.05;;;9.20;99.90;;;;;;5000379;28;20033;-83
2023/03/25 06:56:31;;;;;;;9.25;1.60;;;9.90;99.90;;;;;;4999682;28;20098;-84
2023/03/25 06:58:56;;;;;;;12.52;2.15;;;9.40;99.90;;;;;;5001655;28;20027;-82
2023/03/25 07:01:22;;;;;;;8.77;1.50;;;9.50;99.90;;;;;;5002204;28;20391;-83
2023/03/25 07:03:48;;;;;;;8.75;1.60;;;9.50;99.90;;;;;;5021298;28;20494;-83
2023/03/25 07:06:21;;;;;;;6.90;1.40;;;9.90;99.90;;;;;;5023977;28;20489;-87
2023/03/25 07:08:48;;;;;;;8.18;1.90;;;9.50;99.90;;;;;;5023884;28;20048;-85
2023/03/25 07:11:15;;;;;;;8.02;1.73;;;9.60;99.90;;;;;;5040072;28;20486;-84
2023/03/25 07:13:41;;;;;;;19.42;3.17;;;11.40;99.90;;;;;;5028784;28;20025;-86
2023/03/25 07:16:08;;;;;;;7.75;1.63;;;9.70;99.90;;;;;;5031023;28;20083;-86
2023/03/25 07:18:33;;;;;;;6.70;1.48;;;9.60;99.90;;;;;;5036778;28;20097;-84
2023/03/25 07:20:59;;;;;;;9.20;1.98;;;11.30;99.90;;;;;;5025837;28;20037;-87
2023/03/25 07:23:25;;;;;;;4.65;1.20;;;9.80;99.90;;;;;;5024317;28;20075;-84
2023/03/25 07:25:51;;;;;;;5.07;1.52;;;9.90;99.90;;;;;;5025564;28;20034;-85
2023/03/25 07:28:20;;;;;;;4.25;1.15;;;10.20;99.90;;;;;;5032523;28;20132;-86
2023/03/25 07:30:45;;;;;;;4.18;1.15;;;10.20;99.90;;;;;;5039368;28;20032;-86
2023/03/25 07:33:11;;;;;;;5.25;1.20;;;10.10;99.90;;;;;;5038208;28;20328;-87
2023/03/25 07:35:37;;;;;;;7.93;1.20;;;10.00;99.90;;;;;;5036044;28;20040;-86
2023/03/25 07:38:02;;;;;;;4.13;1.00;;;10.10;99.90;;;;;;5029011;28;20544;-83
2023/03/25 07:40:28;;;;;;;7.80;1.35;;;10.20;99.90;;;;;;5028523;28;20472;-85
2023/03/25 07:42:54;;;;;;;6.60;1.60;;;10.30;99.90;;;;;;5019911;28;20386;-86
2023/03/25 07:45:19;;;;;;;6.20;1.00;;;10.40;99.90;;;;;;5024869;28;20041;-85
2023/03/25 07:47:48;;;;;;;5.22;1.00;;;10.30;99.90;;;;;;5017930;28;20022;-84
2023/03/25 07:50:19;;;;;;;6.60;1.40;;;10.60;99.90;;;;;;5023662;28;20032;-86
2023/03/25 07:52:44;;;;;;;8.25;1.13;;;10.30;99.90;;;;;;5026415;28;20470;-85
2023/03/25 07:55:11;;;;;;;8.88;1.70;;;10.20;99.90;;;;;;5023244;28;20053;-87
2023/03/25 07:57:36;;;;;;;9.18;1.40;;;11.30;99.90;;;;;;5029375;28;20033;-85
2023/03/25 08:00:04;;;;;;;5.75;1.50;;;10.30;99.90;;;;;;5027389;28;20030;-85
2023/03/25 08:02:30;;;;;;;5.75;1.60;;;10.20;99.90;;;;;;5026682;28;20132;-85
2023/03/25 08:04:58;;;;;;;4.05;1.10;;;10.50;99.90;;;;;;5031595;28;20022;-85
2023/03/25 08:07:24;;;;;;;5.80;1.00;;;11.20;99.90;;;;;;5024122;28;20033;-86
2023/03/25 08:09:50;;;;;;;6.15;1.30;;;10.70;99.90;;;;;;5025069;28;20053;-84
2023/03/25 08:12:15;;;;;;;6.43;1.02;;;10.70;99.90;;;;;;5024988;28;20034;-84
2023/03/25 08:14:41;;;;;;;8.38;1.00;;;11.00;99.90;;;;;;5028628;28;20029;-87
2023/03/25 08:17:06;;;;;;;6.00;1.00;;;10.80;99.90;;;;;;5024773;28;21073;-87
2023/03/25 08:19:32;;;;;;;9.23;1.60;;;10.70;99.90;;;;;;5020724;28;20026;-86
2023/03/25 08:21:58;;;;;;;5.13;1.02;;;10.60;99.90;;;;;;5024456;28;20028;-87
2023/03/25 08:24:25;;;;;;;4.45;1.25;;;11.30;99.90;;;;;;5019380;28;20674;-84
2023/03/25 08:26:52;;;;;;;6.00;1.33;;;10.80;99.90;;;;;;5024807;28;20036;-85
2023/03/25 08:29:19;;;;;;;9.48;1.30;;;10.80;99.90;;;;;;5032352;28;20030;-85
2023/03/25 08:31:45;;;;;;;8.32;1.00;;;;;;;;;;5020926;28;20033;-83
2023/03/25 08:34:12;;;;;;;4.15;1.13;;;10.80;99.90;;;;;;5027722;28;20525;-82
2023/03/25 08:36:38;;;;;;;5.75;1.33;;;10.80;99.90;;;;;;5030384;28;20076;-84
2023/03/25 08:39:08;;;;;;;4.80;1.15;;;10.80;99.90;;;;;;5022485;28;20022;-82
2023/03/25 08:41:34;;;;;;;5.95;0.93;;;10.80;99.90;;;;;;5013309;28;20021;-84
2023/03/25 08:44:00;;;;;;;6.05;1.35;;;;;;;;;;5023405;28;20117;-83
2023/03/25 08:46:26;;;;;;;5.40;1.25;;;;;;;;;;5025610;28;20030;-84
2023/03/25 08:48:52;;;;;;;6.53;1.75;;;;;;;;;;5021829;28;20044;-82
2023/03/25 08:51:18;;;;;;;7.47;1.55;;;10.90;99.90;;;;;;5022327;28;20037;-85
2023/03/25 08:53:43;;;;;;;7.30;1.30;;;11.30;99.90;;;;;;5024291;28;20029;-85
2023/03/25 08:56:10;;;;;;;8.43;1.55;;;10.90;99.90;;;;;;5021942;28;20033;-86
2023/03/25 08:58:35;;;;;;;2.47;1.00;;;10.90;99.90;;;;;;5019382;28;20080;-86
2023/03/25 09:01:04;;;;;;;3.80;1.10;;;11.00;99.90;;;;;;5027929;28;20112;-87
2023/03/25 09:03:29;;;;;;;9.40;1.65;;;13.70;99.90;;;;;;5021101;28;20030;-87
2023/03/25 09:05:55;;;;;;;4.60;1.30;;;11.90;99.90;;;;;;5022351;28;20497;-83
2023/03/25 09:08:21;;;;;;;2.38;1.00;;;11.20;99.90;;;;;;5036297;28;20013;-85
2023/03/25 09:10:47;;;;;;;7.47;1.50;;;11.30;99.90;;;;;;5025408;28;20057;-84
2023/03/25 09:13:13;;;;;;;4.20;1.20;;;11.50;99.90;;;;;;5031306;28;20025;-86
2023/03/25 09:15:39;;;;;;;5.80;1.23;;;11.70;99.90;;;;;;5039297;28;20100;-84
2023/03/25 09:18:05;;;;;;;7.20;1.40;;;11.60;99.90;;;;;;5042789;28;20022;-86
2023/03/25 09:20:31;;;;;;;3.20;1.10;;;11.80;99.90;;;;;;5033976;28;20032;-87
2023/03/25 09:22:57;;;;;;;5.13;1.02;;;;;;;;;;5034351;28;20022;-87
2023/03/25 09:25:24;;;;;;;4.28;0.90;;;;;;;;;;5035204;28;20037;-88
2023/03/25 09:27:50;;;;;;;4.40;1.25;;;11.80;99.90;;;;;;5036086;28;20037;-85
2023/03/25 09:30:16;;;;;;;4.13;1.20;;;;;;;;;;5036031;28;20026;-83
2023/03/25 09:32:43;;;;;;;10.30;1.27;;;11.80;99.90;;;;;;5028594;28;20101;-85
2023/03/25 09:35:09;;;;;;;4.50;1.15;;;12.10;99.90;;;;;;5029950;28;20045;-84
2023/03/25 09:37:36;;;;;;;7.35;1.27;;;;;;;;;;5026197;28;20014;-85
2023/03/25 09:40:04;;;;;;;4.88;1.23;;;12.40;99.90;;;;;;5031363;28;20022;-86
2023/03/25 09:42:59;;;;;;;4.70;1.00;;;12.40;99.90;;;;;;5029751;28;20023;-86
2023/03/25 09:45:36;;;;;;;5.72;1.42;;;12.30;99.90;;;;;;5032658;28;20057;-85
2023/03/25 09:48:19;;;;;;;6.10;1.30;;;12.10;99.90;;;;;;5034835;28;20049;-85
2023/03/25 09:50:50;;;;;;;6.43;2.03;;;11.80;99.90;;;;;;5031365;28;20037;-86
2023/03/25 09:53:19;;;;;;;7.63;1.23;;;;;;;;;;5034798;28;20025;-86
2023/03/25 09:55:46;;;;;;;5.93;1.23;;;11.70;99.90;;;;;;5048295;28;20045;-86
2023/03/25 09:58:44;;;;;;;6.50;1.10;;;11.80;99.90;;;;;;5033028;28;20045;-84
2023/03/25 10:01:28;;;;;;;6.63;1.45;;;11.80;99.90;;;;;;5027382;28;20045;-83
2023/03/25 10:03:57;;;;;;;5.07;0.88;;;;;;;;;;5031713;28;20010;-86
2023/03/25 10:06:25;;;;;;;6.28;1.00;;;12.00;99.90;;;;;;5054581;28;20066;-86
2023/03/25 10:09:40;;;;;;;3.92;0.90;;;12.00;99.90;;;;;;5031394;28;20042;-84
2023/03/25 10:12:29;;;;;;;5.25;0.80;;;11.90;99.90;;;;;;5028547;28;20053;-87
2023/03/25 10:15:19;;;;;;;3.55;0.90;;;11.90;99.90;;;;;;5029809;28;20029;-85
2023/03/25 10:17:55;;;;;;;2.78;0.88;;;11.70;99.90;;;;;;5034421;28;20014;-86
2023/03/25 10:20:36;;;;;;;3.42;0.88;;;11.60;99.90;;;;;;5056359;28;20009;-83
2023/03/25 10:23:11;;;;;;;5.20;1.42;;;;;;;;;;5049819;28;20034;-85
2023/03/25 10:25:41;;;;;;;5.80;1.10;;;11.20;99.90;;;;;;5051706;28;20034;-87
2023/03/25 10:28:24;;;;;;;5.78;1.05;;;11.10;99.90;;;;;;5033671;28;20025;-84
2023/03/25 10:30:52;;;;;;;6.63;1.83;;;11.10;99.90;;;;;;5031604;28;20038;-84
2023/03/25 10:33:27;;;;;;;3.83;1.15;;;11.00;99.90;;;;;;5030054;28;20040;-84
2023/03/25 10:35:55;;;;;;;7.22;1.20;;;11.20;99.90;;;;;;5045759;28;20042;-86
2023/03/25 10:38:23;;;;;;;4.85;1.45;;;11.10;99.90;;;;;;5027443;28;20032;-86
2023/03/25 10:41:21;;;;;;;4.10;1.17;;;11.40;99.90;;;;;;5016626;28;20282;-86
2023/03/25 10:43:46;;;;;;;9.25;2.38;;;11.70;99.90;;;;;;5016792;28;20026;-86
2023/03/25 10:46:24;;;;;;;6.18;1.63;;;12.50;99.90;;;;;;5015722;28;20105;-87
2023/03/25 10:48:50;;;;;;;6.82;1.30;;;;;;;;;;5037149;28;20030;-88
2023/03/25 10:51:23;;;;;;;5.13;1.08;;;11.70;99.90;;;;;;5019372;28;20500;-84
2023/03/25 10:53:51;;;;;;;5.88;1.52;;;11.80;99.90;;;;;;5024431;28;20392;-86
2023/03/25 10:56:32;;;;;;;6.15;1.38;;;12.90;99.90;;;;;;5021396;28;20036;-85
2023/03/25 10:59:00;;;;;;;5.15;1.33;;;12.10;99.90;;;;;;5020100;28;20079;-86
2023/03/25 11:01:46;;;;;;;6.68;1.52;;;12.10;99.90;;;;;;5022099;28;20118;-83
2023/03/25 11:04:15;;;;;;;6.85;1.50;;;12.30;99.90;;;;;;5030556;28;20427;-83
2023/03/25 11:06:45;;;;;;;3.35;0.80;;;12.50;99.90;;;;;;5020259;28;20030;-84
2023/03/25 11:09:29;;;;;;;5.13;0.98;;;13.10;99.90;;;;;;5029118;28;20025;-82
2023/03/25 11:11:58;;;;;;;6.80;1.55;;;12.50;99.90;;;;;;5022381;28;20041;-88
2023/03/25 11:14:26;;;;;;;7.32;1.65;;;12.60;99.90;;;;;;5020819;28;20849;-84
2023/03/25 11:16:59;;;;;;;4.43;1.25;;;13.20;99.90;;;;;;5026964;28;20026;-87
2023/03/25 11:19:25;;;;;;;5.40;1.45;;;;;;;;;;5025488;28;20093;-87
2023/03/25 11:22:01;;;;;;;5.45;1.40;;;12.70;99.90;;;;;;5021757;28;20061;-84
2023/03/25 11:24:34;;;;;;;4.55;1.40;;;13.40;99.90;;;;;;5025200;28;20009;-86
2023/03/25 11:27:00;;;;;;;6.22;1.67;;;13.10;99.90;;;;;;5022485;28;20542;-84
2023/03/25 11:29:27;;;;;;;5.88;1.42;;;13.20;99.90;;;;;;5028246;28;20038;-85
2023/03/25 11:32:13;;;;;;;4.55;1.23;;;13.10;99.90;;;;;;5026950;28;20025;-85
2023/03/25 11:34:42;;;;;;;6.40;1.65;;;;;;;;;;5029064;28;20033;-82
2023/03/25 11:37:18;;;;;;;13.15;1.65;;;12.70;99.90;;;;;;5032258;28;20042;-84
2023/03/25 11:39:50;;;;;;;5.43;1.08;;;12.90;99.90;;;;;;5025735;28;20010;-85
2023/03/25 11:42:15;;;;;;;6.20;1.30;;;12.90;99.90;;;;;;5027356;28;20439;-87
2023/03/25 11:44:49;;;;;;;4.38;1.48;;;13.20;99.90;;;;;;5024044;28;20035;-84
2023/03/25 11:47:28;;;;;;;4.07;1.00;;;13.40;99.00;;;;;;5048240;28;20030;-86
2023/03/25 11:49:54;;;;;;;4.57;1.30;;;13.50;99.10;;;;;;5022176;28;20483;-87
2023/03/25 11:52:24;;;;;;;5.63;1.48;;;13.60;98.90;;;;;;5030290;28;20036;-86
2023/03/25 11:54:53;;;;;;;5.05;1.70;;;;;;;;;;5034101;28;20026;-87
2023/03/25 11:57:23;;;;;;;5.47;1.52;;;;;;;;;;5029275;28;20046;-87
2023/03/25 11:59:57;;;;;;;5.05;2.05;;;;;;;;;;5027003;28;20022;-88
2023/03/25 12:02:28;;;;;;;7.05;1.70;;;13.70;98.10;;;;;;5022580;28;20033;-85
2023/03/25 12:05:08;;;;;;;4.40;1.50;;;13.50;97.70;;;;;;5002174;28;20038;-84
2023/03/25 12:07:41;;;;;;;6.60;1.63;;;;;;;;;;5021532;28;20018;-84
2023/03/25 12:10:14;;;;;;;4.47;1.30;;;14.40;98.10;;;;;;5012831;28;20029;-85
2023/03/25 12:12:48;;;;;;;2.53;0.95;;;;;;;;;;5017989;28;20022;-84
2023/03/25 12:15:50;;;;;;;4.07;1.40;;;13.40;97.80;;;;;;5020768;28;20025;-85
2023/03/25 12:18:19;;;;;;;5.07;1.30;;;13.40;97.40;;;;;;5018270;28;20093;-84
2023/03/25 12:21:08;;;;;;;7.68;2.08;;;13.70;96.50;;;;;;5039754;28;20025;-84
2023/03/25 12:23:44;;;;;;;6.18;1.50;;;;;;;;;;4997966;28;20097;-83
2023/03/25 12:26:29;;;;;;;3.45;0.90;;;;;;;;;;5008833;28;20076;-84
2023/03/25 12:29:01;;;;;;;4.40;1.33;;;;;;;;;;5035231;28;20025;-88
2023/03/25 12:31:33;;;;;;;3.97;1.40;;;;;;;;;;5033664;28;20026;-86
2023/03/25 12:34:05;;;;;;;3.03;0.63;;;;;;;;;;5025304;28;20037;-84
2023/03/25 12:36:38;;;;;;;3.17;1.10;;;;;;;;;;5012421;28;20032;-84
2023/03/25 12:39:13;;;;;;;3.67;0.90;;;;;;;;;;5019660;28;20030;-85
2023/03/25 12:41:39;;;;;;;3.13;1.35;;;;;;;;;;5019394;28;20018;-86
2023/03/25 12:44:22;;;;;;;2.58;0.80;;;;;;;;;;5018629;28;20029;-88
2023/03/25 12:46:53;;;;;;;4.63;1.00;;;;;;;;;;5027471;28;20030;-84
2023/03/25 12:49:25;;;;;;;2.28;0.70;;;;;;;;;;5016829;28;20038;-85
2023/03/25 12:52:21;;;;;;;5.18;1.42;;;;;;;;;;5025051;28;20029;-87
2023/03/25 12:55:07;;;;;;;4.68;1.20;;;;;;;;;;5012258;28;20102;-87
2023/03/25 12:57:32;;;;;;;4.07;1.50;;;;;;;;;;5025458;28;20094;-89
2023/03/25 13:00:06;;;;;;;4.22;0.98;;;;;;;;;;5022955;28;20081;-87
2023/03/25 13:02:48;;;;;;;2.88;1.10;;;;;;;;;;5011766;28;20040;-88
2023/03/25 13:05:17;;;;;;;5.30;1.17;;;;;;;;;;5017410;28;20040;-87
2023/03/25 13:07:46;;;;;;;4.37;1.20;;;;;;;;;;5009700;28;20560;-86
2023/03/25 13:10:17;;;;;;;6.10;2.30;;;;;;;;;;5016849;28;20354;-87
2023/03/25 13:12:46;;;;;;;2.55;1.00;;;;;;;;;;5016933;28;20026;-84
2023/03/25 13:15:32;;;;;;;5.97;1.50;;;;;;;;;;5024837;28;20032;-87
2023/03/25 13:18:07;;;;;;;3.55;1.20;;;;;;;;;;5015866;28;20029;-87
2023/03/25 13:20:36;;;;;;;3.58;1.38;;;;;;;;;;5024043;28;20041;-89
2023/03/25 13:23:04;;;;;;;3.75;1.00;;;;;;;;;;5023996;28;20025;-86
2023/03/25 13:25:36;;;;;;;4.95;1.13;;;;;;;;;;5029426;28;20037;-87
2023/03/25 13:28:05;;;;;;;5.10;1.30;;;;;;;;;;5025379;28;20026;-86
2023/03/25 13:30:35;;;;;;;6.28;1.08;;;;;;;;;;5017570;28;20022;-88
2023/03/25 13:33:12;;;;;;;8.70;1.23;;;;;;;;;;5014903;28;20034;-88
2023/03/25 13:35:52;;;;;;;6.15;1.40;;;;;;;;;;5026059;28;20029;-89
2023/03/25 13:38:27;;;;;;;5.65;1.90;;;;;;;;;;5035323;28;20028;-89
2023/03/25 13:41:24;;;;;;;3.53;1.27;;;15.50;90.10;;;;;;5017246;28;20056;-86
2023/03/25 13:43:53;;;;;;;3.97;1.05;;;;;;;;;;5012502;28;20107;-90
2023/03/25 13:46:22;;;;;;;3.90;1.58;;;;;;;;;;5018695;28;20042;-88
2023/03/25 13:48:57;;;;;;;7.32;1.20;;;;;;;;;;5016374;28;20064;-88
2023/03/25 13:51:24;;;;;;;5.85;1.63;;;;;;;;;;5016957;28;20097;-84